EA1AQK
43.16.49N 005.35.99W
IN73EG aprs.fi
zuletzt gehoert:
2021-06-13T11:01:33Z
zuerst gehoert:
2020-02-10T15:01:15Z

APRS IN73EG, 0 Stunde(n), EA1AQK [15:23:49, 0s].
EA1FLQ 43.22.00N 005.36.35WIN73EI 10.623km 354°N13:03:47ZMMDVM DVMega 439.9750/439.9750 CC5
EB1DGC 43.12.60N 005.45.59WIN73CF 15.142km 243°WSW13:01:10ZMMDVM MMDVM HS Hat 433.4500/433.4500 CC1
EA1IMW 43.14.36N 005.46.93WIN73CF 15.712km 257°WSW13:03:15ZGRUPO RADIO GALENA (GRG) 433.4500/433.4500 CC1
ED1ZAD 43.07.90N 005.38.52WIN73ED 16.033km 194°SSW13:15:44ZED1ZAD-3 APRS Digi/Igate(3ED1ZAD-3)
EA1JBL 43.12.28N 005.47.42WIN73CE 17.616km 245°WSW13:04:10ZMMDVM DVMega 435.3000/435.3000 CC1
EA1HWA 43.12.00N 005.47.40WIN73CE 17.813km 244°WSW13:01:23ZMMDVM MMDVM HS Hat 433.4500/433.4500 CC1
ED1ZAS 43.27.52N 005.40.17WIN73DL 21.717km 343°NNW13:05:41ZRD985 438.2250/430.6250 CC1
LEHU 43.22.63N 005.49.57WIN73CJ 22.210km 302°WNW13:00:05ZHelipuerto del HUCA: LEAS 131230Z 05007KT 340V100 8000 FEW010 21/18 Q1020 NOSIG=
EA1L 43.20.38N 005.51.13WIN73BI 22.294km 290°WNW13:02:30ZWind 040°/004kn, Böen bis 012kn, Temp 27.22c, Regen 0.0mm, letzte 24h 0.0mm, seit 0h 0.0mm, Baro 1017.4h, Hum: 71%(3EA1L-13)
ea1l@ure.es V=11.8V,T=??.?C(2EA1L)
ED1ZAE 43.27.99N 005.40.54WIN73DL 22.677km 343°NNW13:17:38Z400 M. PICO SAN MARTIN (GIJON) 13.5V,28.8C(3ED1ZAE-3)
EA1IN 43.25.16N 005.47.43WIN73CK 22.906km 316°NW13:02:32ZMMDVM MMDVM HS Hat 434.7000/434.7000 CC1
EA1RCG 43.09.45N 005.49.78WIN73CD 22.975km 237°WSW13:03:32ZGRUPO RADIO GALENA (GRG) 433.4500/433.4500 CC1
33D00 43.21.63N 005.51.13WIN73BI 23.162km 295°WNW13:01:57Z33-D-00 Protección Civil REMER / Delegación del Gobierno en Asturias
EA1HJA 43.21.47N 005.52.09WIN73BI 24.240km 293°WNW13:16:14Z IN73FL WX3IN1+ 2.0 - V=13.3V,TX TEMP=38.8C(3EA1HJA-2)
IN73FL WX3IN1+ 2.0 - V=13.9V,TX TEMP=46.0C(2EA1HJA)
EA1YR 43.22.09N 005.51.86WIN73BI 24.437km 296°WNW13:05:07ZMMDVM DVS 434.3500/434.3500 CC1
EB1GEM 43.30.00N 005.36.07WIN73EM 25.423km 359°N13:12:33ZWX3in1Plus2.0 U=13.3V,T=??.?C/??.?F(3EB1GEM-3)
LEMR 43.25.83N 005.49.60WIN73CK 25.863km 313°NW13:00:05ZAerodromo de la Morgal: LEAS 131230Z 05007KT 340V100 8000 FEW010 21/18 Q1020 NOSIG=
EA1FHR 43.28.72N 005.26.41WIN73GL 26.131km 28°NNE13:02:52ZMMDVM MMDVM HS Hat 439.1500/439.1500 CC1
ED1ZAU 43.23.04N 005.52.75WIN73BJ 26.299km 298°WNW13:05:55ZRD625 438.5000/430.9000 CC1
LEGM 43.26.15N 005.49.84WIN73CK 26.507km 314°NW13:00:05ZHelipuerto de La Morgal: LEAS 131230Z 05007KT 340V100 8000 FEW010 21/18 Q1020 NOSIG=
EA1HWD 43.28.96N 005.26.30WIN73GL 26.599km 28°NNE13:00:31Z144.575FM Local frecuency VHF. 434.2500/434.2500 CC1
EA1JAY 43.29.33N 005.26.78WIN73GL 26.931km 26°NNE13:00:11Z434.525MHz Nodo TETRA DMO(3EA1JAY-4)
EA1JAY(2EA1JAY-2)
EA1DZR 43.31.47N 005.40.00WIN73DM 28.742km 348°NNW13:03:46ZMMDVM DVMega 431.1000/431.1000 CC1
EA1IEJ 43.31.81N 005.40.64WIN73DM 29.560km 347°NNW13:02:12ZMMDVM MMDVM HS Hat 438.8500/438.8500 CC6
EB1TK 43.32.22N 005.42.32WIN73DM 30.886km 343°NNW13:15:17ZWind 047°/008kn, Böen bis 012kn, Temp 20.00c, Regen 0.0mm, letzte 24h 0.0mm, seit 0h 0.0mm, Baro 1022.9h, Hum: 88%(3EB1TK-13)
LEEL 43.32.98N 005.41.71WIN73DN 31.999km 345°NNW13:00:06ZHelipuerto de El Musel: LEAS 131230Z 05007KT 340V100 8000 FEW010 21/18 Q1020 NOSIG=
ED1ZAY 43.29.47N 005.56.54WIN73AL 37.329km 311°NW13:05:53ZRD625 438.3000/430.7000 CC1
EB1IOW 43.28.73N 005.13.75WIN73JL 37.382km 52°NE13:01:09ZMMDVM MMDVM HS Hat 430.5000/430.5000 CC1
EA1JBU 43.30.80N 005.16.20WIN73IM 37.466km 44°NE13:00:07ZEA1JBU(3EA1JBU-2)
EA1JBE 43.30.90N 005.16.15WIN73IM 37.655km 44°NE13:00:05ZEA1JBU(3EA1JBE-13)
MAIN QTH http://qrz.com/db/ea1jbe(2EA1JBE-1)
ED1ZBF 43.19.16N 005.06.74WIN73KH 39.263km 82°E13:05:43ZRD625 438.4750/430.8750 CC1
EA1AHA 43.32.74N 005.54.36WIN73BN 39.591km 320°NW13:00:54ZWind 158°/008kn, Böen bis 011kn, Temp 23.33c, Regen 0.0mm, letzte 24h 0.0mm, seit 0h 0.0mm, Baro 1021.1h, Hum: 70%(3EA1AHA-13)
MMDVM MMDVM HS 432.5000/432.5000 CC1(2EA1AHA)
EA1IZV 43.33.25N 005.55.92WIN73AN 41.670km 319°NW13:00:04ZEn proceso...
EA1DHE 43.33.98N 005.58.57WIN73AN 45.071km 317°NW13:05:20ZMMDVM DVS 434.3500/434.3500 CC1

aprs.pl 5.0.011w DL3EL © 2006-2021 [458710]